createdAt,value
2018-03-26T00:00:30.556Z,11.10
2018-03-26T00:02:58.197Z,11.70
2018-03-26T00:05:25.842Z,11.20
2018-03-26T00:07:54.234Z,8.57
2018-03-26T00:10:21.864Z,8.70
2018-03-26T00:12:49.620Z,8.60
2018-03-26T00:15:17.439Z,8.97
2018-03-26T00:17:45.068Z,9.43
2018-03-26T00:20:12.712Z,10.70
2018-03-26T00:22:41.595Z,10.83
2018-03-26T00:25:09.551Z,11.67
2018-03-26T00:27:37.397Z,9.40
2018-03-26T00:30:05.022Z,13.10
2018-03-26T00:32:32.885Z,9.20
2018-03-26T00:35:00.580Z,8.93
2018-03-26T00:37:28.213Z,8.43
2018-03-26T00:39:55.877Z,8.13
2018-03-26T00:42:23.832Z,9.17
2018-03-26T00:44:51.742Z,9.70
2018-03-26T00:47:19.388Z,9.47
2018-03-26T00:49:47.740Z,9.20
2018-03-26T00:52:15.606Z,8.97
2018-03-26T00:54:44.062Z,11.13
2018-03-26T00:57:11.684Z,8.30
2018-03-26T00:59:39.594Z,10.93
2018-03-26T01:02:07.240Z,9.33
2018-03-26T01:04:35.495Z,10.40
2018-03-26T01:07:03.093Z,11.10
2018-03-26T01:09:30.733Z,10.70
2018-03-26T01:11:59.023Z,10.00
2018-03-26T01:14:27.371Z,9.23
2018-03-26T01:16:55.013Z,11.20
2018-03-26T01:19:22.650Z,13.60
2018-03-26T01:21:50.979Z,9.43
2018-03-26T01:24:18.620Z,9.47
2018-03-26T01:26:46.814Z,9.03
2018-03-26T01:29:14.871Z,10.60
2018-03-26T01:31:43.785Z,8.80
2018-03-26T01:34:12.386Z,8.87
2018-03-26T01:36:39.989Z,10.33
2018-03-26T01:39:08.018Z,9.57
2018-03-26T01:41:35.869Z,9.37
2018-03-26T01:44:03.539Z,12.40
2018-03-26T01:46:31.208Z,12.63
2018-03-26T01:49:00.680Z,9.60
2018-03-26T01:51:28.322Z,8.63
2018-03-26T01:53:55.991Z,10.00
2018-03-26T01:56:23.690Z,12.60
2018-03-26T01:58:51.300Z,10.90
2018-03-26T02:01:18.942Z,10.60
2018-03-26T02:03:46.652Z,10.67
2018-03-26T02:06:14.754Z,10.30
2018-03-26T02:08:42.934Z,8.83
2018-03-26T02:11:10.572Z,7.93
2018-03-26T02:13:38.216Z,8.70
2018-03-26T02:16:05.858Z,8.87
2018-03-26T02:18:33.561Z,6.47
2018-03-26T02:21:01.207Z,7.27
2018-03-26T02:23:29.422Z,10.63
2018-03-26T02:25:57.162Z,7.63
2018-03-26T02:28:25.016Z,8.20
2018-03-26T02:30:52.724Z,10.27
2018-03-26T02:33:20.302Z,8.20
2018-03-26T02:35:48.014Z,9.67
2018-03-26T02:38:16.293Z,8.80
2018-03-26T02:40:45.038Z,11.07
2018-03-26T02:43:12.842Z,11.80
2018-03-26T02:45:40.761Z,11.60
2018-03-26T02:48:08.775Z,10.93
2018-03-26T02:50:36.442Z,9.60
2018-03-26T02:53:04.099Z,11.00
2018-03-26T02:55:31.764Z,10.90
2018-03-26T02:58:00.176Z,14.33
2018-03-26T03:00:28.726Z,15.00
2018-03-26T03:02:56.509Z,14.07
2018-03-26T03:05:24.307Z,15.17
2018-03-26T03:07:52.139Z,14.27
2018-03-26T03:10:20.361Z,13.20
2018-03-26T03:12:48.600Z,13.30
2018-03-26T03:15:17.724Z,11.33
2018-03-26T03:17:45.678Z,11.00
2018-03-26T03:20:13.388Z,11.30
2018-03-26T03:22:42.295Z,11.67
2018-03-26T03:25:09.944Z,10.80
2018-03-26T03:27:37.609Z,12.17
2018-03-26T03:30:05.924Z,10.43
2018-03-26T03:32:33.668Z,11.80
2018-03-26T03:35:01.517Z,11.63
2018-03-26T03:37:29.918Z,9.70
2018-03-26T03:39:58.198Z,10.27
2018-03-26T03:42:25.843Z,12.30
2018-03-26T03:44:54.480Z,13.30
2018-03-26T03:47:22.513Z,13.77
2018-03-26T03:49:51.417Z,13.73
2018-03-26T03:52:19.997Z,13.43
2018-03-26T03:54:47.851Z,13.40
2018-03-26T03:57:16.493Z,12.57
2018-03-26T03:59:44.157Z,12.90
2018-03-26T04:02:11.835Z,11.80
2018-03-26T04:04:39.635Z,11.87
2018-03-26T04:07:07.461Z,13.00
2018-03-26T04:09:35.366Z,10.00
2018-03-26T04:12:04.450Z,10.33
2018-03-26T04:14:32.741Z,10.03
2018-03-26T04:17:00.607Z,11.67
2018-03-26T04:19:28.267Z,10.93
2018-03-26T04:21:56.650Z,11.80
2018-03-26T04:24:24.406Z,11.03
2018-03-26T04:26:53.144Z,11.73
2018-03-26T04:29:20.944Z,11.70
2018-03-26T04:31:48.865Z,16.93
2018-03-26T04:34:16.751Z,15.17
2018-03-26T04:36:44.554Z,13.13
2018-03-26T04:39:12.150Z,15.10
2018-03-26T04:41:39.992Z,13.00
2018-03-26T04:44:08.551Z,12.80
2018-03-26T04:46:36.439Z,12.83
2018-03-26T04:49:05.730Z,12.67
2018-03-26T04:51:33.380Z,12.53
2018-03-26T04:54:01.052Z,10.90
2018-03-26T04:56:28.714Z,10.13
2018-03-26T04:58:56.658Z,12.60
2018-03-26T05:01:24.362Z,13.67
2018-03-26T05:03:52.611Z,13.37
2018-03-26T05:06:20.443Z,14.10
2018-03-26T05:08:49.285Z,12.43
2018-03-26T05:11:17.056Z,11.80
2018-03-26T05:13:44.770Z,13.47
2018-03-26T05:16:12.464Z,13.30
2018-03-26T05:18:40.263Z,13.70
2018-03-26T05:21:07.915Z,13.53
2018-03-26T05:23:35.584Z,12.50
2018-03-26T05:26:03.334Z,12.83
2018-03-26T05:28:33.724Z,14.30
2018-03-26T05:31:01.788Z,15.17
2018-03-26T05:33:29.493Z,16.43
2018-03-26T05:35:57.376Z,14.20
2018-03-26T05:38:25.034Z,13.90
2018-03-26T05:40:52.669Z,14.90
2018-03-26T05:43:20.325Z,15.07
2018-03-26T05:45:48.193Z,15.33
2018-03-26T05:48:15.895Z,15.37
2018-03-26T05:50:43.850Z,16.00
2018-03-26T05:53:11.595Z,17.37
2018-03-26T05:55:39.284Z,17.07
2018-03-26T05:58:06.929Z,15.93
2018-03-26T06:00:34.594Z,16.07
2018-03-26T06:03:02.587Z,16.20
2018-03-26T06:05:30.959Z,15.67
2018-03-26T06:07:58.600Z,15.17
2018-03-26T06:10:26.263Z,17.30
2018-03-26T06:12:54.362Z,15.73
2018-03-26T06:15:22.202Z,18.70
2018-03-26T06:17:49.947Z,18.87
2018-03-26T06:20:18.317Z,16.20
2018-03-26T06:22:46.133Z,16.90
2018-03-26T06:25:13.994Z,16.23
2018-03-26T06:27:41.852Z,17.10
2018-03-26T06:30:09.528Z,17.47
2018-03-26T06:32:37.167Z,19.90
2018-03-26T06:35:05.697Z,20.77
2018-03-26T06:37:38.866Z,23.80
2018-03-26T06:40:06.704Z,28.70
2018-03-26T06:42:34.949Z,21.67
2018-03-26T06:45:03.316Z,21.20
2018-03-26T06:47:31.099Z,23.70
2018-03-26T06:49:58.981Z,21.33
2018-03-26T06:52:27.199Z,20.33
2018-03-26T06:54:55.047Z,21.43
2018-03-26T06:57:23.133Z,19.43
2018-03-26T06:59:50.801Z,18.70
2018-03-26T07:02:18.695Z,21.37
2018-03-26T07:04:46.875Z,18.77
2018-03-26T07:07:15.281Z,19.50
2018-03-26T07:09:43.017Z,17.17
2018-03-26T07:12:11.040Z,17.63
2018-03-26T07:14:38.716Z,17.90
2018-03-26T07:17:06.766Z,18.73
2018-03-26T07:19:34.516Z,16.20
2018-03-26T07:22:03.078Z,14.77
2018-03-26T07:24:31.421Z,17.27
2018-03-26T07:26:59.039Z,18.70
2018-03-26T07:29:26.950Z,17.80
2018-03-26T07:31:54.743Z,20.17
2018-03-26T07:34:22.864Z,18.00
2018-03-26T07:36:50.484Z,16.43
2018-03-26T07:39:18.775Z,17.93
2018-03-26T07:41:46.661Z,19.03
2018-03-26T07:44:14.343Z,16.93
2018-03-26T07:46:42.421Z,16.90
2018-03-26T07:49:10.282Z,22.63
2018-03-26T07:51:38.149Z,26.10
2018-03-26T07:54:05.793Z,23.50
2018-03-26T07:56:33.479Z,18.90
2018-03-26T07:59:01.111Z,17.03
2018-03-26T08:01:29.012Z,17.03
2018-03-26T08:03:56.882Z,15.83
2018-03-26T08:06:24.537Z,14.40
2018-03-26T08:08:52.206Z,17.13
2018-03-26T08:11:19.910Z,16.13
2018-03-26T08:13:47.615Z,18.30
2018-03-26T08:16:15.256Z,21.53
2018-03-26T08:18:42.925Z,17.03
2018-03-26T08:21:10.556Z,17.57
2018-03-26T08:23:39.290Z,17.33
2018-03-26T08:26:07.783Z,19.17
2018-03-26T08:28:35.658Z,20.70
2018-03-26T08:31:04.076Z,17.17
2018-03-26T08:33:31.787Z,18.30
2018-03-26T08:35:59.459Z,21.47
2018-03-26T08:38:27.116Z,19.40
2018-03-26T08:40:56.218Z,18.87
2018-03-26T08:43:23.884Z,18.73
2018-03-26T08:45:51.540Z,18.27
2018-03-26T08:48:19.426Z,19.30
2018-03-26T08:50:47.267Z,18.50
2018-03-26T08:53:14.958Z,17.27
2018-03-26T08:55:42.628Z,16.47
2018-03-26T08:58:10.457Z,17.60
2018-03-26T09:00:38.130Z,17.50
2018-03-26T09:03:06.617Z,17.77
2018-03-26T09:05:34.280Z,19.40
2018-03-26T09:08:02.012Z,16.13
2018-03-26T09:10:30.081Z,17.50
2018-03-26T09:12:59.078Z,15.33
2018-03-26T09:15:26.791Z,17.20
2018-03-26T09:17:54.748Z,15.67
2018-03-26T09:20:23.987Z,18.77
2018-03-26T09:22:52.112Z,17.70
2018-03-26T09:25:19.988Z,18.87
2018-03-26T09:27:48.893Z,18.80
2018-03-26T09:30:16.792Z,15.70
2018-03-26T09:32:44.805Z,17.33
2018-03-26T09:35:14.453Z,16.63
2018-03-26T09:37:43.090Z,16.77
2018-03-26T09:40:11.380Z,14.90
2018-03-26T09:42:39.726Z,17.80
2018-03-26T09:45:07.431Z,16.70
2018-03-26T09:47:35.067Z,16.90
2018-03-26T09:50:04.026Z,16.90
2018-03-26T09:52:31.707Z,18.07
2018-03-26T09:54:59.641Z,18.30
2018-03-26T09:57:27.678Z,17.83
2018-03-26T09:59:55.746Z,17.93
2018-03-26T10:02:24.845Z,18.80
2018-03-26T10:04:52.829Z,18.50
2018-03-26T10:07:20.471Z,16.93
2018-03-26T10:09:49.482Z,17.30
2018-03-26T10:12:17.384Z,24.33
2018-03-26T10:14:45.298Z,18.27
2018-03-26T10:17:13.885Z,17.70
2018-03-26T10:19:42.169Z,17.53
2018-03-26T10:22:11.495Z,17.00
2018-03-26T10:24:39.312Z,16.27
2018-03-26T10:27:07.181Z,18.90
2018-03-26T10:29:35.252Z,17.30
2018-03-26T10:32:02.936Z,19.37
2018-03-26T10:34:30.598Z,17.80
2018-03-26T10:36:58.488Z,18.13
2018-03-26T10:39:26.193Z,17.30
2018-03-26T10:41:53.784Z,18.73
2018-03-26T10:44:21.867Z,18.80
2018-03-26T10:46:49.729Z,18.77
2018-03-26T10:49:17.580Z,18.13
2018-03-26T10:51:45.351Z,18.67
2018-03-26T10:54:13.132Z,18.47
2018-03-26T10:56:40.947Z,18.20
2018-03-26T10:59:09.170Z,17.00
2018-03-26T11:01:36.834Z,18.23
2018-03-26T11:04:04.478Z,19.57
2018-03-26T11:06:32.361Z,18.00
2018-03-26T11:09:00.029Z,22.97
2018-03-26T11:11:28.301Z,19.60
2018-03-26T11:13:57.457Z,17.10
2018-03-26T11:16:28.092Z,18.93
2018-03-26T11:18:55.951Z,19.97
2018-03-26T11:21:23.771Z,20.93
2018-03-26T11:23:51.925Z,22.83
2018-03-26T11:26:20.005Z,24.07
2018-03-26T11:28:47.941Z,21.77
2018-03-26T11:31:15.804Z,21.93
2018-03-26T11:33:44.033Z,22.13
2018-03-26T11:36:12.002Z,23.17
2018-03-26T11:38:39.744Z,22.50
2018-03-26T11:41:07.827Z,23.70
2018-03-26T11:43:35.559Z,22.43
2018-03-26T11:46:04.552Z,22.50
2018-03-26T11:48:33.030Z,22.97
2018-03-26T11:51:01.090Z,22.50
2018-03-26T11:53:28.978Z,20.73
2018-03-26T11:55:56.666Z,24.07
2018-03-26T11:58:24.544Z,21.77
2018-03-26T12:00:52.606Z,22.67
2018-03-26T12:03:20.777Z,23.87
2018-03-26T12:05:48.547Z,23.60
2018-03-26T12:08:16.205Z,22.17
2018-03-26T12:10:44.277Z,21.27
2018-03-26T12:13:12.142Z,21.43
2018-03-26T12:15:39.823Z,21.07
2018-03-26T12:18:09.066Z,20.30
2018-03-26T12:20:48.740Z,22.27
2018-03-26T12:23:28.602Z,21.30
2018-03-26T12:25:56.686Z,20.97
2018-03-26T12:28:36.837Z,21.63
2018-03-26T12:31:04.709Z,21.27
2018-03-26T12:33:32.702Z,22.43
2018-03-26T12:36:00.675Z,22.10
2018-03-26T12:38:28.514Z,21.30
2018-03-26T12:40:57.130Z,20.67
2018-03-26T12:43:25.158Z,21.80
2018-03-26T12:46:04.507Z,23.43
2018-03-26T12:48:33.940Z,20.40
2018-03-26T12:51:14.289Z,22.97
2018-03-26T12:53:41.985Z,20.60
2018-03-26T12:56:09.906Z,20.87
2018-03-26T12:58:57.598Z,19.43
2018-03-26T13:01:37.119Z,21.10
2018-03-26T13:04:05.376Z,20.10
2018-03-26T13:06:33.796Z,19.47
2018-03-26T13:09:01.665Z,19.17
2018-03-26T13:11:29.530Z,20.50
2018-03-26T13:13:57.622Z,22.83
2018-03-26T13:16:25.874Z,18.90
2018-03-26T13:18:53.972Z,21.97
2018-03-26T13:21:22.555Z,20.93
2018-03-26T13:23:51.111Z,21.60
2018-03-26T13:26:18.829Z,23.07
2018-03-26T13:28:46.557Z,23.20
2018-03-26T13:31:14.462Z,24.43
2018-03-26T13:33:42.241Z,23.73
2018-03-26T13:36:09.943Z,22.93
2018-03-26T13:38:37.661Z,23.37
2018-03-26T13:41:05.360Z,22.87
2018-03-26T13:43:34.244Z,22.33
2018-03-26T13:46:01.994Z,22.13
2018-03-26T13:48:29.715Z,23.10
2018-03-26T13:50:57.401Z,24.20
2018-03-26T13:53:25.107Z,24.00
2018-03-26T13:55:52.802Z,24.13
2018-03-26T13:58:20.536Z,24.67
2018-03-26T14:00:48.194Z,24.43
2018-03-26T14:03:16.778Z,24.83
2018-03-26T14:05:44.692Z,23.67
2018-03-26T14:08:24.872Z,24.07
2018-03-26T14:11:18.238Z,23.37
2018-03-26T14:13:58.459Z,22.67
2018-03-26T14:16:38.096Z,25.23
2018-03-26T14:19:06.169Z,23.40
2018-03-26T14:21:34.250Z,20.60
2018-03-26T14:24:02.173Z,20.50
2018-03-26T14:26:29.985Z,21.03
2018-03-26T14:28:58.409Z,22.10
2018-03-26T14:31:26.304Z,20.87
2018-03-26T14:33:54.645Z,20.10
2018-03-26T14:36:22.676Z,24.40
2018-03-26T14:38:50.685Z,22.10
2018-03-26T14:41:18.828Z,20.87
2018-03-26T14:43:46.606Z,21.73
2018-03-26T14:46:14.262Z,19.63
2018-03-26T14:48:43.259Z,20.33
2018-03-26T14:51:10.919Z,21.13
2018-03-26T14:53:39.428Z,22.00
2018-03-26T14:56:07.143Z,22.50
2018-03-26T14:58:34.874Z,24.07
2018-03-26T15:01:02.629Z,26.60
2018-03-26T15:03:30.726Z,26.57
2018-03-26T15:05:58.574Z,26.47
2018-03-26T15:08:27.187Z,31.07
2018-03-26T15:10:55.232Z,34.33
2018-03-26T15:13:23.321Z,29.27
2018-03-26T15:15:51.078Z,26.50
2018-03-26T15:18:18.882Z,29.93
2018-03-26T15:20:46.943Z,31.97
2018-03-26T15:23:15.841Z,30.37
2018-03-26T15:25:43.911Z,32.70
2018-03-26T15:28:13.263Z,33.10
2018-03-26T15:30:40.982Z,30.83
2018-03-26T15:33:08.941Z,29.90
2018-03-26T15:35:37.024Z,30.37
2018-03-26T15:38:04.866Z,26.93
2018-03-26T15:40:32.762Z,27.87
2018-03-26T15:43:00.797Z,40.47
2018-03-26T15:45:28.667Z,24.83
2018-03-26T15:47:56.584Z,24.20
2018-03-26T15:50:25.251Z,29.17
2018-03-26T15:52:54.263Z,26.20
2018-03-26T15:55:22.008Z,29.40
2018-03-26T15:57:49.704Z,30.10
2018-03-26T16:00:17.467Z,24.17
2018-03-26T16:02:50.822Z,24.63
2018-03-26T16:05:18.595Z,24.50
2018-03-26T16:07:46.456Z,26.23
2018-03-26T16:10:14.496Z,27.47
2018-03-26T16:12:42.396Z,25.90
2018-03-26T16:15:10.254Z,27.03
2018-03-26T16:17:38.243Z,25.57
2018-03-26T16:20:06.811Z,26.60
2018-03-26T16:22:34.690Z,24.13
2018-03-26T16:25:02.692Z,25.03
2018-03-26T16:27:30.807Z,23.10
2018-03-26T16:29:58.850Z,25.50
2018-03-26T16:32:26.841Z,23.67
2018-03-26T16:34:55.686Z,25.47
2018-03-26T16:37:23.630Z,25.43
2018-03-26T16:39:54.391Z,24.80
2018-03-26T16:42:29.420Z,25.03
2018-03-26T16:44:58.083Z,24.77
2018-03-26T16:47:25.993Z,26.03
2018-03-26T16:49:54.084Z,23.83
2018-03-26T16:52:22.097Z,22.30
2018-03-26T16:54:50.944Z,20.27
2018-03-26T16:57:19.047Z,23.17
2018-03-26T16:59:47.150Z,22.10
2018-03-26T17:02:15.141Z,23.40
2018-03-26T17:04:43.990Z,24.90
2018-03-26T17:07:11.854Z,20.57
2018-03-26T17:09:39.518Z,21.70
2018-03-26T17:12:07.405Z,21.50
2018-03-26T17:14:35.120Z,19.93
2018-03-26T17:17:03.096Z,19.37
2018-03-26T17:19:31.389Z,19.50
2018-03-26T17:21:59.263Z,18.70
2018-03-26T17:24:28.567Z,27.07
2018-03-26T17:26:56.312Z,33.33
2018-03-26T17:29:24.261Z,26.20
2018-03-26T17:31:52.570Z,21.27
2018-03-26T17:34:20.954Z,21.73
2018-03-26T17:36:48.887Z,18.17
2018-03-26T17:39:17.101Z,22.20
2018-03-26T17:41:45.170Z,21.33
2018-03-26T17:44:14.687Z,20.90
2018-03-26T17:46:42.951Z,19.43
2018-03-26T17:49:11.311Z,21.43
2018-03-26T17:51:39.379Z,21.57
2018-03-26T17:54:07.581Z,21.33
2018-03-26T17:56:35.653Z,21.33
2018-03-26T17:59:04.134Z,20.77
2018-03-26T18:01:31.897Z,21.77
2018-03-26T18:04:00.896Z,21.60
2018-03-26T18:06:28.999Z,21.60
2018-03-26T18:08:57.647Z,22.70
2018-03-26T18:11:27.601Z,21.03
2018-03-26T18:13:57.300Z,20.33
2018-03-26T18:16:26.537Z,20.63
2018-03-26T18:18:55.122Z,21.43
2018-03-26T18:21:23.282Z,19.13
2018-03-26T18:23:51.206Z,22.07
2018-03-26T18:26:20.056Z,18.80
2018-03-26T18:28:48.747Z,18.70
2018-03-26T18:31:18.014Z,19.10
2018-03-26T18:33:47.451Z,22.33
2018-03-26T18:36:16.184Z,20.97
2018-03-26T18:38:46.842Z,20.63
2018-03-26T18:41:17.853Z,20.30
2018-03-26T18:43:46.488Z,21.00
2018-03-26T18:46:16.132Z,21.47
2018-03-26T18:48:45.603Z,21.43
2018-03-26T18:51:14.130Z,20.70
2018-03-26T18:53:44.508Z,19.50
2018-03-26T18:56:14.954Z,20.43
2018-03-26T18:58:43.871Z,20.27
2018-03-26T19:01:12.945Z,22.37
2018-03-26T19:03:42.897Z,21.77
2018-03-26T19:06:13.110Z,22.90
2018-03-26T19:08:43.126Z,21.77
2018-03-26T19:11:13.208Z,21.33
2018-03-26T19:13:42.650Z,21.53
2018-03-26T19:16:12.078Z,19.67
2018-03-26T19:18:40.774Z,22.63
2018-03-26T19:21:08.907Z,22.70
2018-03-26T19:23:37.070Z,23.73
2018-03-26T19:26:10.806Z,24.40
2018-03-26T19:28:40.169Z,24.73
2018-03-26T19:31:08.609Z,28.57
2018-03-26T19:33:37.155Z,25.10
2018-03-26T19:36:05.934Z,24.90
2018-03-26T19:38:34.415Z,23.10
2018-03-26T19:41:03.010Z,22.03
2018-03-26T19:43:31.824Z,24.80
2018-03-26T19:46:00.731Z,22.97
2018-03-26T19:48:29.585Z,24.33
2018-03-26T19:50:59.988Z,23.57
2018-03-26T19:53:28.620Z,25.80
2018-03-26T19:55:57.069Z,24.60
2018-03-26T19:58:26.190Z,25.90
2018-03-26T20:00:54.162Z,28.00
2018-03-26T20:03:22.448Z,25.47
2018-03-26T20:05:51.446Z,24.60
2018-03-26T20:08:20.427Z,23.60
2018-03-26T20:10:48.595Z,26.37
2018-03-26T20:13:18.302Z,22.27
2018-03-26T20:15:46.324Z,22.33
2018-03-26T20:18:14.212Z,26.97
2018-03-26T20:20:43.355Z,24.47
2018-03-26T20:23:11.633Z,27.07
2018-03-26T20:25:43.353Z,27.33
2018-03-26T20:28:11.785Z,26.60
2018-03-26T20:30:39.885Z,24.37
2018-03-26T20:33:07.978Z,26.03
2018-03-26T20:35:35.955Z,25.27
2018-03-26T20:38:04.023Z,23.80
2018-03-26T20:40:31.848Z,27.47
2018-03-26T20:42:59.956Z,27.33
2018-03-26T20:45:27.807Z,23.77
2018-03-26T20:47:56.208Z,25.50
2018-03-26T20:50:24.244Z,25.60
2018-03-26T20:52:55.216Z,24.20
2018-03-26T20:55:23.233Z,25.67
2018-03-26T20:57:51.474Z,25.90
2018-03-26T21:00:19.358Z,25.63
2018-03-26T21:02:48.097Z,28.17
2018-03-26T21:05:15.856Z,26.50
2018-03-26T21:07:44.905Z,26.30
2018-03-26T21:10:12.846Z,25.47
2018-03-26T21:12:40.761Z,24.00
2018-03-26T21:15:09.767Z,26.07
2018-03-26T21:17:37.879Z,25.83
2018-03-26T21:20:06.723Z,25.43
2018-03-26T21:22:34.743Z,25.57
2018-03-26T21:25:02.817Z,25.70
2018-03-26T21:27:31.490Z,26.37
2018-03-26T21:29:59.354Z,27.23
2018-03-26T21:32:27.447Z,25.17
2018-03-26T21:34:56.006Z,25.13
2018-03-26T21:37:23.937Z,23.57
2018-03-26T21:39:51.841Z,24.90
2018-03-26T21:42:19.491Z,26.53
2018-03-26T21:44:47.153Z,24.07
2018-03-26T21:47:15.932Z,25.43
2018-03-26T21:49:43.830Z,24.93
2018-03-26T21:52:11.808Z,26.90
2018-03-26T21:54:39.977Z,24.60
2018-03-26T21:57:07.900Z,24.97
2018-03-26T21:59:36.321Z,24.73
2018-03-26T22:02:04.984Z,25.57
2018-03-26T22:04:32.872Z,25.90
2018-03-26T22:07:00.854Z,24.70
2018-03-26T22:09:28.762Z,24.33
2018-03-26T22:11:56.591Z,24.13
2018-03-26T22:14:24.667Z,23.80
2018-03-26T22:16:52.428Z,23.20
2018-03-26T22:19:21.319Z,25.47
2018-03-26T22:21:49.189Z,23.67
2018-03-26T22:24:16.782Z,22.67
2018-03-26T22:26:44.572Z,25.40
2018-03-26T22:29:12.442Z,22.63
2018-03-26T22:31:40.246Z,25.90
2018-03-26T22:34:07.903Z,27.43
2018-03-26T22:36:35.874Z,25.43
2018-03-26T22:39:03.767Z,23.80
2018-03-26T22:41:32.000Z,22.70
2018-03-26T22:44:00.268Z,27.10
2018-03-26T22:46:28.272Z,23.30
2018-03-26T22:48:55.956Z,27.67
2018-03-26T22:51:24.002Z,26.17
2018-03-26T22:53:52.437Z,22.23
2018-03-26T22:56:20.233Z,24.13
2018-03-26T22:58:48.114Z,21.90
2018-03-26T23:01:16.185Z,23.97
2018-03-26T23:03:44.053Z,23.97
2018-03-26T23:06:12.127Z,25.57
2018-03-26T23:08:40.308Z,25.03
2018-03-26T23:11:08.757Z,25.23
2018-03-26T23:13:37.074Z,24.40
2018-03-26T23:16:05.326Z,24.40
2018-03-26T23:18:33.211Z,22.10
2018-03-26T23:21:01.075Z,24.37
2018-03-26T23:23:28.928Z,22.50
2018-03-26T23:25:56.795Z,24.03
2018-03-26T23:28:24.655Z,24.20
2018-03-26T23:30:52.646Z,25.73
2018-03-26T23:33:20.493Z,24.60
2018-03-26T23:35:48.272Z,24.20
2018-03-26T23:38:16.126Z,25.67
2018-03-26T23:40:44.518Z,22.63
2018-03-26T23:43:12.168Z,23.00
2018-03-26T23:45:39.818Z,23.60
2018-03-26T23:48:07.495Z,25.03
2018-03-26T23:50:35.463Z,26.13
2018-03-26T23:53:03.080Z,27.00
2018-03-26T23:55:30.734Z,26.87
2018-03-26T23:57:58.365Z,27.67
